createdAt,value
2019-02-20T00:01:21.781Z,10.70
2019-02-20T00:03:56.954Z,10.70
2019-02-20T00:06:32.138Z,10.70
2019-02-20T00:09:08.156Z,10.60
2019-02-20T00:11:43.344Z,10.60
2019-02-20T00:14:18.576Z,10.60
2019-02-20T00:16:53.825Z,10.60
2019-02-20T00:19:29.041Z,10.50
2019-02-20T00:22:04.212Z,10.50
2019-02-20T00:24:39.363Z,10.50
2019-02-20T00:27:14.674Z,10.40
2019-02-20T00:29:49.836Z,10.40
2019-02-20T00:32:25.072Z,10.40
2019-02-20T00:35:00.309Z,10.40
2019-02-20T00:37:35.632Z,10.30
2019-02-20T00:40:11.063Z,10.30
2019-02-20T00:42:46.313Z,10.20
2019-02-20T00:45:39.996Z,10.20
2019-02-20T00:48:40.180Z,10.20
2019-02-20T00:51:40.459Z,10.10
2019-02-20T00:54:15.728Z,10.00
2019-02-20T00:56:51.011Z,10.00
2019-02-20T00:59:26.196Z,9.90
2019-02-20T01:02:01.418Z,9.90
2019-02-20T01:04:36.579Z,9.90
2019-02-20T01:07:11.852Z,9.80
2019-02-20T01:09:47.104Z,9.80
2019-02-20T01:12:22.535Z,9.80
2019-02-20T01:14:57.790Z,9.80
2019-02-20T01:17:32.890Z,9.80
2019-02-20T01:20:08.809Z,9.80
2019-02-20T01:22:44.044Z,9.70
2019-02-20T01:25:19.282Z,9.70
2019-02-20T01:27:54.523Z,9.70
2019-02-20T01:30:29.760Z,9.70
2019-02-20T01:33:05.024Z,9.70
2019-02-20T01:35:40.337Z,9.60
2019-02-20T01:38:15.559Z,9.60
2019-02-20T01:40:50.885Z,9.60
2019-02-20T01:43:26.116Z,9.60
2019-02-20T01:46:01.409Z,9.50
2019-02-20T01:48:36.654Z,9.50
2019-02-20T01:51:11.966Z,9.40
2019-02-20T01:53:47.201Z,9.40
2019-02-20T01:56:22.524Z,9.40
2019-02-20T01:58:57.726Z,9.30
2019-02-20T02:01:32.968Z,9.30
2019-02-20T02:04:08.250Z,9.30
2019-02-20T02:06:43.570Z,9.30
2019-02-20T02:09:18.826Z,9.20
2019-02-20T02:11:54.161Z,9.20
2019-02-20T02:14:29.303Z,9.20
2019-02-20T02:17:04.493Z,9.20
2019-02-20T02:19:39.713Z,9.10
2019-02-20T02:22:14.972Z,9.10
2019-02-20T02:24:50.116Z,9.10
2019-02-20T02:27:25.325Z,9.00
2019-02-20T02:30:00.543Z,9.00
2019-02-20T02:32:35.712Z,9.00
2019-02-20T02:35:10.882Z,8.90
2019-02-20T02:37:46.214Z,8.90
2019-02-20T02:40:21.488Z,8.80
2019-02-20T02:42:56.741Z,8.80
2019-02-20T02:45:31.980Z,8.80
2019-02-20T02:48:07.292Z,8.70
2019-02-20T02:50:42.473Z,8.70
2019-02-20T02:53:17.809Z,8.70
2019-02-20T02:55:53.088Z,8.70
2019-02-20T02:58:28.366Z,8.70
2019-02-20T03:01:03.668Z,8.60
2019-02-20T03:03:38.968Z,8.60
2019-02-20T03:06:14.117Z,8.60
2019-02-20T03:08:49.371Z,8.50
2019-02-20T03:11:24.544Z,8.50
2019-02-20T03:13:59.746Z,8.50
2019-02-20T03:16:34.968Z,8.50
2019-02-20T03:19:10.312Z,8.50
2019-02-20T03:21:45.559Z,8.50
2019-02-20T03:24:20.813Z,8.50
2019-02-20T03:26:56.049Z,8.40
2019-02-20T03:29:31.346Z,8.40
2019-02-20T03:32:06.572Z,8.40
2019-02-20T03:34:42.059Z,8.40
2019-02-20T03:37:17.216Z,8.40
2019-02-20T03:39:52.532Z,8.40
2019-02-20T03:42:27.698Z,8.40
2019-02-20T03:45:02.934Z,8.40
2019-02-20T03:47:38.172Z,8.30
2019-02-20T03:50:13.423Z,8.30
2019-02-20T03:52:48.677Z,8.30
2019-02-20T03:55:23.978Z,8.30
2019-02-20T03:57:59.224Z,8.20
2019-02-20T04:00:34.537Z,8.10
2019-02-20T04:03:09.753Z,8.10
2019-02-20T04:05:44.991Z,8.10
2019-02-20T04:08:20.220Z,8.10
2019-02-20T04:10:55.548Z,8.00
2019-02-20T04:13:31.112Z,8.00
2019-02-20T04:16:06.310Z,7.90
2019-02-20T04:18:41.561Z,7.90
2019-02-20T04:21:16.803Z,7.90
2019-02-20T04:24:01.562Z,7.80
2019-02-20T04:26:29.036Z,7.80
2019-02-20T04:29:04.239Z,7.80
2019-02-20T04:31:39.463Z,7.70
2019-02-20T04:34:14.692Z,7.70
2019-02-20T04:36:49.876Z,7.70
2019-02-20T04:39:25.026Z,7.70
2019-02-20T04:42:00.191Z,7.60
2019-02-20T04:44:35.341Z,7.60
2019-02-20T04:47:10.523Z,7.60
2019-02-20T04:49:45.664Z,7.60
2019-02-20T04:52:20.928Z,7.60
2019-02-20T04:54:56.149Z,7.50
2019-02-20T04:57:31.405Z,7.50
2019-02-20T05:00:08.268Z,7.50
2019-02-20T05:02:43.585Z,7.50
2019-02-20T05:05:18.812Z,7.40
2019-02-20T05:07:54.127Z,7.40
2019-02-20T05:10:29.419Z,7.40
2019-02-20T05:13:04.677Z,7.40
2019-02-20T05:15:40.018Z,7.40
2019-02-20T05:18:15.271Z,7.30
2019-02-20T05:20:50.567Z,7.30
2019-02-20T05:23:25.920Z,7.30
2019-02-20T05:26:01.169Z,7.30
2019-02-20T05:28:36.462Z,7.30
2019-02-20T05:31:11.610Z,7.30
2019-02-20T05:33:46.782Z,7.40
2019-02-20T05:36:21.999Z,7.40
2019-02-20T05:38:57.300Z,7.40
2019-02-20T05:41:32.453Z,7.40
2019-02-20T05:44:07.625Z,7.40
2019-02-20T05:46:42.841Z,7.40
2019-02-20T05:49:17.998Z,7.40
2019-02-20T05:51:53.150Z,7.40
2019-02-20T05:54:34.413Z,7.50
2019-02-20T05:57:05.313Z,7.50
2019-02-20T05:59:40.562Z,7.50
2019-02-20T06:02:15.806Z,7.50
2019-02-20T06:04:51.110Z,7.50
2019-02-20T06:07:26.255Z,7.50
2019-02-20T06:10:01.596Z,7.50
2019-02-20T06:12:36.824Z,7.60
2019-02-20T06:15:12.164Z,7.60
2019-02-20T06:17:47.400Z,7.60
2019-02-20T06:20:22.564Z,7.60
2019-02-20T06:22:57.853Z,7.60
2019-02-20T06:25:33.205Z,7.60
2019-02-20T06:28:08.496Z,7.60
2019-02-20T06:30:43.688Z,7.50
2019-02-20T06:33:18.933Z,7.60
2019-02-20T06:35:54.100Z,7.50
2019-02-20T06:38:29.325Z,7.50
2019-02-20T06:41:04.662Z,7.50
2019-02-20T06:43:39.877Z,7.50
2019-02-20T06:46:15.122Z,7.50
2019-02-20T06:48:50.427Z,7.50
2019-02-20T06:51:25.586Z,7.50
2019-02-20T06:54:00.732Z,7.50
2019-02-20T06:56:35.924Z,7.50
2019-02-20T06:59:11.145Z,7.60
2019-02-20T07:01:46.406Z,7.60
2019-02-20T07:04:21.581Z,7.60
2019-02-20T07:07:21.274Z,7.60
2019-02-20T07:10:34.009Z,7.70
2019-02-20T07:13:33.417Z,7.70
2019-02-20T07:16:45.909Z,7.70
2019-02-20T07:19:37.042Z,7.70
2019-02-20T07:22:34.390Z,7.80
2019-02-20T07:25:29.289Z,7.80
2019-02-20T07:28:38.688Z,7.90
2019-02-20T07:31:14.016Z,7.90
2019-02-20T07:33:49.172Z,8.00
2019-02-20T07:36:24.354Z,8.00
2019-02-20T07:38:59.653Z,8.00
2019-02-20T07:41:34.896Z,8.10
2019-02-20T07:44:10.137Z,8.20
2019-02-20T07:46:45.323Z,8.20
2019-02-20T07:49:20.488Z,8.30
2019-02-20T07:51:55.617Z,8.30
2019-02-20T07:54:30.872Z,8.40
2019-02-20T07:57:06.121Z,8.40
2019-02-20T07:59:41.356Z,8.50
2019-02-20T08:02:16.696Z,8.50
2019-02-20T08:04:51.989Z,8.60
2019-02-20T08:07:27.184Z,8.60
2019-02-20T08:10:02.420Z,8.70
2019-02-20T08:12:37.745Z,8.70
2019-02-20T08:15:13.322Z,8.80
2019-02-20T08:17:48.555Z,8.90
2019-02-20T08:20:23.824Z,8.90
2019-02-20T08:22:59.060Z,9.00
2019-02-20T08:25:34.348Z,9.10
2019-02-20T08:28:09.526Z,9.20
2019-02-20T08:30:44.736Z,9.20
2019-02-20T08:33:19.926Z,9.30
2019-02-20T08:35:55.227Z,9.30
2019-02-20T08:38:30.466Z,9.40
2019-02-20T08:41:05.690Z,9.50
2019-02-20T08:43:41.019Z,9.50
2019-02-20T08:46:16.297Z,9.60
2019-02-20T08:48:51.478Z,9.60
2019-02-20T08:51:26.766Z,9.70
2019-02-20T08:54:04.341Z,9.70
2019-02-20T08:56:38.870Z,9.80
2019-02-20T08:59:14.115Z,9.90
2019-02-20T09:01:49.425Z,10.00
2019-02-20T09:04:24.809Z,10.00
2019-02-20T09:07:00.054Z,10.10
2019-02-20T09:09:35.310Z,10.20
2019-02-20T09:12:10.601Z,10.30
2019-02-20T09:14:45.776Z,10.40
2019-02-20T09:17:21.004Z,10.50
2019-02-20T09:19:56.265Z,10.60
2019-02-20T09:22:31.456Z,10.70
2019-02-20T09:25:08.263Z,10.90
2019-02-20T09:27:43.419Z,10.90
2019-02-20T09:30:18.591Z,11.00
2019-02-20T09:32:53.882Z,11.10
2019-02-20T09:35:29.188Z,11.20
2019-02-20T09:38:04.343Z,11.30
2019-02-20T09:40:39.545Z,11.40
2019-02-20T09:43:14.856Z,11.40
2019-02-20T09:45:50.093Z,11.50
2019-02-20T09:48:25.332Z,11.60
2019-02-20T09:51:00.572Z,11.70
2019-02-20T09:53:35.806Z,11.90
2019-02-20T09:56:11.041Z,12.00
2019-02-20T09:58:46.204Z,12.10
2019-02-20T10:01:21.524Z,12.20
2019-02-20T10:03:56.751Z,12.30
2019-02-20T10:06:32.084Z,12.40
2019-02-20T10:09:07.265Z,12.40
2019-02-20T10:11:42.501Z,12.50
2019-02-20T10:14:17.652Z,12.60
2019-02-20T10:16:54.026Z,12.80
2019-02-20T10:19:29.422Z,12.90
2019-02-20T10:22:04.838Z,13.00
2019-02-20T10:24:40.185Z,13.10
2019-02-20T10:27:15.556Z,13.10
2019-02-20T10:29:50.736Z,13.20
2019-02-20T10:32:25.906Z,13.30
2019-02-20T10:35:01.142Z,13.30
2019-02-20T10:37:36.464Z,13.40
2019-02-20T10:40:11.709Z,13.50
2019-02-20T10:42:46.977Z,13.60
2019-02-20T10:45:22.211Z,13.60
2019-02-20T10:47:57.528Z,13.80
2019-02-20T10:50:32.756Z,13.80
2019-02-20T10:53:08.037Z,13.90
2019-02-20T10:55:43.234Z,14.00
2019-02-20T10:58:18.480Z,14.10
2019-02-20T11:00:53.722Z,14.20
2019-02-20T11:03:28.968Z,14.30
2019-02-20T11:06:04.187Z,14.40
2019-02-20T11:08:39.438Z,14.50
2019-02-20T11:11:14.632Z,14.50
2019-02-20T11:13:49.912Z,14.60
2019-02-20T11:16:25.057Z,14.60
2019-02-20T11:19:00.309Z,14.60
2019-02-20T11:21:35.598Z,14.60
2019-02-20T11:24:10.844Z,14.60
2019-02-20T11:26:54.080Z,14.60
2019-02-20T11:29:22.877Z,14.70
2019-02-20T11:31:58.118Z,14.70
2019-02-20T11:34:33.434Z,14.70
2019-02-20T11:37:08.749Z,14.80
2019-02-20T11:39:44.057Z,14.80
2019-02-20T11:42:19.286Z,14.90
2019-02-20T11:44:54.519Z,15.00
2019-02-20T11:47:29.737Z,15.00
2019-02-20T11:50:05.467Z,15.10
2019-02-20T11:52:40.709Z,15.10
2019-02-20T11:55:15.996Z,15.20
2019-02-20T11:57:51.145Z,15.20
2019-02-20T12:00:26.564Z,15.20
2019-02-20T12:03:01.725Z,15.20
2019-02-20T12:05:36.890Z,15.20
2019-02-20T12:08:12.041Z,15.20
2019-02-20T12:10:47.220Z,15.20
2019-02-20T12:13:22.460Z,15.20
2019-02-20T12:15:57.699Z,15.30
2019-02-20T12:18:32.940Z,15.30
2019-02-20T12:21:08.254Z,15.30
2019-02-20T12:23:43.561Z,15.40
2019-02-20T12:26:18.897Z,15.40
2019-02-20T12:28:54.092Z,15.40
2019-02-20T12:31:29.291Z,15.50
2019-02-20T12:34:04.528Z,15.50
2019-02-20T12:36:39.734Z,15.60
2019-02-20T12:39:15.139Z,15.60
2019-02-20T12:41:50.379Z,15.70
2019-02-20T12:44:25.692Z,15.70
2019-02-20T12:47:00.943Z,15.80
2019-02-20T12:49:36.239Z,15.90
2019-02-20T12:52:11.503Z,15.90
2019-02-20T12:54:46.805Z,15.90
2019-02-20T12:57:22.068Z,15.90
2019-02-20T12:59:57.297Z,16.00
2019-02-20T13:02:32.456Z,15.90
2019-02-20T13:05:08.044Z,16.00
2019-02-20T13:07:43.306Z,16.00
2019-02-20T13:10:18.549Z,15.90
2019-02-20T13:12:53.785Z,15.90
2019-02-20T13:15:29.026Z,15.90
2019-02-20T13:18:04.218Z,15.90
2019-02-20T13:20:39.440Z,15.90
2019-02-20T13:23:14.646Z,15.90
2019-02-20T13:25:49.932Z,15.90
2019-02-20T13:28:25.162Z,15.90
2019-02-20T13:31:01.357Z,15.80
2019-02-20T13:33:36.605Z,15.80
2019-02-20T13:36:11.840Z,15.80
2019-02-20T13:38:47.361Z,15.80
2019-02-20T13:41:22.677Z,15.80
2019-02-20T13:43:58.011Z,15.80
2019-02-20T13:46:33.318Z,15.80
2019-02-20T13:49:08.563Z,15.80
2019-02-20T13:51:43.871Z,15.80
2019-02-20T13:54:19.159Z,15.80
2019-02-20T13:57:01.639Z,15.80
2019-02-20T13:59:31.427Z,15.80
2019-02-20T14:02:06.751Z,15.80
2019-02-20T14:04:42.084Z,15.70
2019-02-20T14:07:17.383Z,15.70
2019-02-20T14:09:52.606Z,15.70
2019-02-20T14:12:27.998Z,15.70
2019-02-20T14:15:03.318Z,15.70
2019-02-20T14:17:38.616Z,15.70
2019-02-20T14:20:13.944Z,15.70
2019-02-20T14:22:49.442Z,15.70
2019-02-20T14:25:24.750Z,15.80
2019-02-20T14:28:00.058Z,15.80
2019-02-20T14:30:35.320Z,15.80
2019-02-20T14:33:10.961Z,15.80
2019-02-20T14:35:47.161Z,15.80
2019-02-20T14:38:22.476Z,15.80
2019-02-20T14:40:57.786Z,15.80
2019-02-20T14:43:33.308Z,15.80
2019-02-20T14:46:08.630Z,15.80
2019-02-20T14:48:43.930Z,15.70
2019-02-20T14:51:19.192Z,15.70
2019-02-20T14:53:54.726Z,15.70
2019-02-20T14:56:30.050Z,15.70
2019-02-20T14:59:05.349Z,15.60
2019-02-20T15:01:40.621Z,15.60
2019-02-20T15:04:16.234Z,15.60
2019-02-20T15:06:51.495Z,15.60
2019-02-20T15:09:26.808Z,15.60
2019-02-20T15:12:02.139Z,15.60
2019-02-20T15:14:37.657Z,15.60
2019-02-20T15:17:12.924Z,15.50
2019-02-20T15:19:48.148Z,15.50
2019-02-20T15:22:23.478Z,15.50
2019-02-20T15:24:59.577Z,15.50
2019-02-20T15:27:34.835Z,15.50
2019-02-20T15:30:12.548Z,15.50
2019-02-20T15:32:47.866Z,15.50
2019-02-20T15:35:23.407Z,15.50
2019-02-20T15:37:58.665Z,15.50
2019-02-20T15:40:33.970Z,15.50
2019-02-20T15:43:09.225Z,15.50
2019-02-20T15:45:44.812Z,15.50
2019-02-20T15:48:23.401Z,15.50
2019-02-20T15:50:56.997Z,15.50
2019-02-20T15:53:32.328Z,15.50
2019-02-20T15:56:07.931Z,15.50
2019-02-20T15:58:43.281Z,15.50
2019-02-20T16:01:18.509Z,15.40
2019-02-20T16:03:53.764Z,15.40
2019-02-20T16:06:29.495Z,15.40
2019-02-20T16:09:05.276Z,15.40
2019-02-20T16:11:40.577Z,15.40
2019-02-20T16:14:15.897Z,15.30
2019-02-20T16:16:51.547Z,15.30
2019-02-20T16:19:26.853Z,15.30
2019-02-20T16:22:03.165Z,15.20
2019-02-20T16:24:38.601Z,15.20
2019-02-20T16:27:14.300Z,15.10
2019-02-20T16:29:49.621Z,15.10
2019-02-20T16:32:24.852Z,15.00
2019-02-20T16:35:00.279Z,15.00
2019-02-20T16:37:35.833Z,14.90
2019-02-20T16:40:12.055Z,14.80
2019-02-20T16:42:47.352Z,14.80
2019-02-20T16:45:23.761Z,14.70
2019-02-20T16:47:59.288Z,14.70
2019-02-20T16:50:34.622Z,14.60
2019-02-20T16:53:09.911Z,14.60
2019-02-20T16:55:45.267Z,14.50
2019-02-20T16:58:20.882Z,14.50
2019-02-20T17:00:56.248Z,14.40
2019-02-20T17:03:31.533Z,14.40
2019-02-20T17:06:06.855Z,14.30
2019-02-20T17:08:42.567Z,14.30
2019-02-20T17:11:17.884Z,14.20
2019-02-20T17:13:53.117Z,14.10
2019-02-20T17:16:28.427Z,14.10
2019-02-20T17:19:04.147Z,14.00
2019-02-20T17:21:39.452Z,13.90
2019-02-20T17:24:14.691Z,13.90
2019-02-20T17:26:49.933Z,13.80
2019-02-20T17:29:25.524Z,13.80
2019-02-20T17:32:00.768Z,13.70
2019-02-20T17:34:36.000Z,13.70
2019-02-20T17:37:11.358Z,13.60
2019-02-20T17:39:47.229Z,13.60
2019-02-20T17:42:22.554Z,13.50
2019-02-20T17:44:57.873Z,13.50
2019-02-20T17:47:34.626Z,13.40
2019-02-20T17:50:12.577Z,13.40
2019-02-20T17:52:47.887Z,13.40
2019-02-20T17:55:23.169Z,13.30
2019-02-20T17:57:58.397Z,13.30
2019-02-20T18:00:33.733Z,13.20
2019-02-20T18:03:08.972Z,13.10
2019-02-20T18:05:44.120Z,13.10
2019-02-20T18:08:22.264Z,13.10
2019-02-20T18:10:57.422Z,13.00
2019-02-20T18:13:32.655Z,13.00
2019-02-20T18:16:07.941Z,13.00
2019-02-20T18:18:43.084Z,12.90
2019-02-20T18:21:18.314Z,12.90
2019-02-20T18:23:53.592Z,12.80
2019-02-20T18:26:28.810Z,12.80
2019-02-20T18:29:04.037Z,12.80
2019-02-20T18:31:39.340Z,12.70
2019-02-20T18:34:14.574Z,12.70
2019-02-20T18:36:49.877Z,12.70
2019-02-20T18:39:25.190Z,12.60
2019-02-20T18:42:00.532Z,12.60
2019-02-20T18:44:35.828Z,12.60
2019-02-20T18:47:11.116Z,12.60
2019-02-20T18:49:46.373Z,12.50
2019-02-20T18:52:21.694Z,12.50
2019-02-20T18:55:05.619Z,12.50
2019-02-20T18:57:33.821Z,12.50
2019-02-20T19:00:12.642Z,12.40
2019-02-20T19:02:47.941Z,12.40
2019-02-20T19:05:23.190Z,12.40
2019-02-20T19:07:58.404Z,12.40
2019-02-20T19:10:36.270Z,12.30
2019-02-20T19:13:51.554Z,12.30
2019-02-20T19:17:02.859Z,12.30
2019-02-20T19:19:48.387Z,12.30
2019-02-20T19:22:49.847Z,12.20
2019-02-20T19:26:02.071Z,12.10
2019-02-20T19:28:47.841Z,12.00
2019-02-20T19:32:13.013Z,12.00
2019-02-20T19:35:16.602Z,12.00
2019-02-20T19:38:17.602Z,11.90
2019-02-20T19:41:31.690Z,11.90
2019-02-20T19:44:16.563Z,11.90
2019-02-20T19:47:31.236Z,11.80
2019-02-20T19:50:36.868Z,11.80
2019-02-20T19:53:51.398Z,11.80
2019-02-20T19:57:06.751Z,11.70
2019-02-20T20:00:16.189Z,11.60
2019-02-20T20:03:16.001Z,11.60
2019-02-20T20:06:01.105Z,11.60
2019-02-20T20:09:01.777Z,11.50
2019-02-20T20:12:21.941Z,11.50
2019-02-20T20:15:31.639Z,11.50
2019-02-20T20:18:32.196Z,11.50
2019-02-20T20:21:41.557Z,11.40
2019-02-20T20:24:47.618Z,11.40
2019-02-20T20:27:38.727Z,11.40
2019-02-20T20:30:46.545Z,11.40
2019-02-20T20:34:13.965Z,11.30
2019-02-20T20:37:34.965Z,11.30
2019-02-20T20:40:47.016Z,11.20
2019-02-20T20:44:02.501Z,11.10
2019-02-20T20:46:59.686Z,11.10
2019-02-20T20:50:00.380Z,11.00
2019-02-20T20:52:55.645Z,11.00
2019-02-20T20:56:06.836Z,10.90
2019-02-20T20:59:28.949Z,10.90
2019-02-20T21:02:50.564Z,10.80
2019-02-20T21:06:15.841Z,10.80
2019-02-20T21:09:04.746Z,10.70
2019-02-20T21:12:12.197Z,10.70
2019-02-20T21:15:41.153Z,10.60
2019-02-20T21:18:52.532Z,10.60
2019-02-20T21:21:50.922Z,10.60
2019-02-20T21:24:49.162Z,10.60
2019-02-20T21:27:44.793Z,10.50
2019-02-20T21:30:48.900Z,10.50
2019-02-20T21:34:14.620Z,10.50
2019-02-20T21:37:20.166Z,10.50
2019-02-20T21:40:42.377Z,10.40
2019-02-20T21:44:10.453Z,10.40
2019-02-20T21:47:34.847Z,10.40
2019-02-20T21:50:43.800Z,10.30
2019-02-20T21:54:03.316Z,10.30
2019-02-20T21:57:02.682Z,10.20
2019-02-20T22:00:03.729Z,10.20
2019-02-20T22:03:03.024Z,10.10
2019-02-20T22:06:18.101Z,10.10
2019-02-20T22:09:16.654Z,10.10
2019-02-20T22:12:50.630Z,10.00
2019-02-20T22:15:55.727Z,10.00
2019-02-20T22:19:24.020Z,10.00
2019-02-20T22:22:12.660Z,9.90
2019-02-20T22:25:31.791Z,9.90
2019-02-20T22:29:04.021Z,9.90
2019-02-20T22:31:56.978Z,9.80
2019-02-20T22:35:19.649Z,9.80
2019-02-20T22:38:43.394Z,9.80
2019-02-20T22:41:55.623Z,9.80
2019-02-20T22:45:27.204Z,9.70
2019-02-20T22:48:34.033Z,9.70
2019-02-20T22:51:59.535Z,9.70
2019-02-20T22:55:31.018Z,9.70
2019-02-20T22:58:40.349Z,9.60
2019-02-20T23:02:02.484Z,9.60
2019-02-20T23:05:12.989Z,9.60
2019-02-20T23:08:20.483Z,9.70
2019-02-20T23:11:51.630Z,9.70
2019-02-20T23:14:59.057Z,9.70
2019-02-20T23:17:34.484Z,9.70
2019-02-20T23:20:09.883Z,9.70
2019-02-20T23:22:45.188Z,9.70
2019-02-20T23:25:20.417Z,9.70
2019-02-20T23:27:55.648Z,9.70
2019-02-20T23:30:30.887Z,9.70
2019-02-20T23:33:06.106Z,9.70
2019-02-20T23:35:41.379Z,9.70
2019-02-20T23:38:16.528Z,9.70
2019-02-20T23:40:51.741Z,9.80
2019-02-20T23:43:26.953Z,9.80
2019-02-20T23:46:02.196Z,9.80
2019-02-20T23:48:37.401Z,9.80
2019-02-20T23:51:12.621Z,9.80
2019-02-20T23:53:47.924Z,9.80
2019-02-20T23:56:23.219Z,9.80
2019-02-20T23:58:58.441Z,9.80
